createdAt,value
2023-10-12T00:03:14.818Z,65.3
2023-10-12T00:09:08.776Z,68.3
2023-10-12T00:15:02.256Z,68.5
2023-10-12T00:20:57.229Z,66.5
2023-10-12T00:26:49.045Z,65.6
2023-10-12T00:32:41.195Z,65.9
2023-10-12T00:38:32.657Z,66
2023-10-12T00:44:26.169Z,64.3
2023-10-12T00:50:20.784Z,64.5
2023-10-12T00:56:14.880Z,63.7
2023-10-12T01:02:06.784Z,63.1
2023-10-12T01:07:58.576Z,63.4
2023-10-12T01:13:51.696Z,63.6
2023-10-12T01:19:44.726Z,63.2
2023-10-12T01:25:37.218Z,63.6
2023-10-12T01:31:30.864Z,63.5
2023-10-12T01:37:22.378Z,63.8
2023-10-12T01:43:15.579Z,63.9
2023-10-12T01:49:08.065Z,64.2
2023-10-12T01:55:00.845Z,64.2
2023-10-12T02:00:55.157Z,64.3
2023-10-12T02:06:49.010Z,63.9
2023-10-12T02:12:42.830Z,63.6
2023-10-12T02:18:37.835Z,61.6
2023-10-12T02:24:30.639Z,60.7
2023-10-12T02:30:25.018Z,60.1
2023-10-12T02:36:18.033Z,60.2
2023-10-12T02:42:10.650Z,61.5
2023-10-12T02:48:02.787Z,63
2023-10-12T02:53:53.811Z,63.9
2023-10-12T02:59:45.240Z,65.4
2023-10-12T03:05:38.174Z,67.5
2023-10-12T03:11:30.302Z,69.3
2023-10-12T03:17:21.114Z,70
2023-10-12T03:23:15.686Z,68.8
2023-10-12T03:29:10.933Z,68.4
2023-10-12T03:35:02.607Z,70
2023-10-12T03:40:58.146Z,68.8
2023-10-12T03:46:51.286Z,70.3
2023-10-12T03:52:44.852Z,73.2
2023-10-12T03:58:39.615Z,73.1
2023-10-12T04:04:32.115Z,76
2023-10-12T04:10:27.235Z,76.9
2023-10-12T04:16:19.458Z,76.4
2023-10-12T04:22:12.345Z,76.3
2023-10-12T04:28:05.578Z,76.9
2023-10-12T04:33:55.927Z,80.5
2023-10-12T04:39:47.385Z,81
2023-10-12T04:45:41.252Z,80.6
2023-10-12T04:51:33.368Z,79.2
2023-10-12T04:57:28.781Z,78.6
2023-10-12T05:03:25.216Z,78.2
2023-10-12T05:09:18.270Z,78.9
2023-10-12T05:15:13.203Z,80.2
2023-10-12T05:21:07.946Z,83.2
2023-10-12T05:27:03.467Z,83
2023-10-12T05:32:59.715Z,83.9
2023-10-12T05:38:54.042Z,85.7
2023-10-12T05:44:46.000Z,85.6
2023-10-12T05:50:39.121Z,88.1
2023-10-12T05:56:32.125Z,89.8
2023-10-12T06:02:26.341Z,90.3
2023-10-12T06:08:19.083Z,89.9
2023-10-12T06:14:12.829Z,90
2023-10-12T06:20:10.768Z,89.7
2023-10-12T06:26:10.390Z,93.5
2023-10-12T06:32:05.922Z,93.9
2023-10-12T06:38:00.445Z,93.5
2023-10-12T06:43:53.735Z,92.8
2023-10-12T06:49:46.866Z,95
2023-10-12T06:55:39.560Z,96.6
2023-10-12T07:01:34.871Z,98.3
2023-10-12T07:07:28.522Z,95.3
2023-10-12T07:13:22.519Z,96.3
2023-10-12T07:19:18.517Z,95.7
2023-10-12T07:25:11.213Z,96.8
2023-10-12T07:31:06.178Z,96.9
2023-10-12T07:37:01.433Z,96.9
2023-10-12T07:42:53.685Z,96.9
2023-10-12T07:48:46.451Z,97.4
2023-10-12T07:54:39.691Z,96.2
2023-10-12T08:00:34.043Z,97.9
2023-10-12T08:06:28.387Z,98.9
2023-10-12T08:12:22.161Z,100
2023-10-12T08:18:16.994Z,97.7
2023-10-12T08:24:11.558Z,97.5
2023-10-12T08:30:04.552Z,98.8
2023-10-12T08:35:54.462Z,99
2023-10-12T08:41:45.917Z,100
2023-10-12T08:47:38.511Z,100
2023-10-12T08:53:31.132Z,100
2023-10-12T08:59:26.096Z,100
2023-10-12T09:05:21.941Z,100
2023-10-12T09:11:17.346Z,100
2023-10-12T09:17:15.813Z,100
2023-10-12T09:23:15.973Z,100
2023-10-12T09:29:09.971Z,100
2023-10-12T09:35:02.329Z,100
2023-10-12T09:40:58.698Z,100
2023-10-12T09:46:59.870Z,100
2023-10-12T09:52:52.839Z,100
2023-10-12T09:58:47.229Z,100
2023-10-12T10:04:40.035Z,100
2023-10-12T10:10:32.926Z,100
2023-10-12T10:16:25.522Z,100
2023-10-12T10:22:21.151Z,100
2023-10-12T10:28:15.774Z,100
2023-10-12T10:34:11.082Z,100
2023-10-12T10:40:03.378Z,100
2023-10-12T10:45:56.532Z,100
2023-10-12T10:51:49.603Z,100
2023-10-12T10:57:43.496Z,100
2023-10-12T11:03:37.885Z,100
2023-10-12T11:09:32.403Z,100
2023-10-12T11:15:25.422Z,100
2023-10-12T11:21:19.858Z,100
2023-10-12T11:27:12.793Z,100
2023-10-12T11:33:07.451Z,100
2023-10-12T11:39:01.656Z,100
2023-10-12T11:44:55.068Z,99.8
2023-10-12T11:50:46.893Z,98.4
2023-10-12T11:56:39.579Z,98.2
2023-10-12T12:02:34.959Z,96
2023-10-12T12:08:27.874Z,96.4
2023-10-12T12:14:22.583Z,95.3
2023-10-12T12:20:15.257Z,96
2023-10-12T12:26:07.946Z,94.2
2023-10-12T12:32:00.378Z,91.4
2023-10-12T12:37:51.374Z,89
2023-10-12T12:43:44.869Z,88.5
2023-10-12T12:49:43.932Z,88.4
2023-10-12T12:55:36.526Z,87.5
2023-10-12T13:01:30.320Z,92.3
2023-10-12T13:07:25.053Z,96.9
2023-10-12T13:13:20.033Z,98.1
2023-10-12T13:19:12.429Z,97
2023-10-12T13:25:05.044Z,97.3
2023-10-12T13:30:58.018Z,98.8
2023-10-12T13:36:52.193Z,100
2023-10-12T13:42:46.111Z,100
2023-10-12T13:48:40.275Z,100
2023-10-12T13:54:37.494Z,100
2023-10-12T14:00:32.168Z,100
2023-10-12T14:06:25.229Z,100
2023-10-12T14:12:24.440Z,100
2023-10-12T14:18:15.796Z,100
2023-10-12T14:24:10.361Z,100
2023-10-12T14:30:04.181Z,100
2023-10-12T14:35:56.468Z,100
2023-10-12T14:41:50.989Z,100
2023-10-12T14:47:44.319Z,100
2023-10-12T14:53:36.640Z,100
2023-10-12T14:59:28.627Z,100
2023-10-12T15:05:20.890Z,100
2023-10-12T15:11:15.670Z,100
2023-10-12T15:17:08.303Z,100
2023-10-12T15:23:00.340Z,100
2023-10-12T15:28:54.119Z,100
2023-10-12T15:34:46.550Z,100
2023-10-12T15:40:41.213Z,100
2023-10-12T15:46:35.597Z,100
2023-10-12T15:52:28.372Z,100
2023-10-12T15:58:22.661Z,100
2023-10-12T16:04:15.148Z,100
2023-10-12T16:10:05.854Z,100
2023-10-12T16:15:56.985Z,100
2023-10-12T16:21:50.007Z,100
2023-10-12T16:27:40.440Z,100
2023-10-12T16:33:32.351Z,100
2023-10-12T16:39:26.895Z,100
2023-10-12T16:45:18.999Z,100
2023-10-12T16:51:13.621Z,100
2023-10-12T16:57:07.607Z,100
2023-10-12T17:02:59.783Z,100
2023-10-12T17:08:54.506Z,100
2023-10-12T17:14:47.124Z,100
2023-10-12T17:20:39.975Z,100
2023-10-12T17:26:32.677Z,100
2023-10-12T17:32:25.039Z,100
2023-10-12T17:38:19.467Z,100
2023-10-12T17:44:12.625Z,100
2023-10-12T17:50:07.645Z,100
2023-10-12T17:56:02.217Z,100
2023-10-12T18:01:54.470Z,100
2023-10-12T18:07:46.761Z,100
2023-10-12T18:13:40.552Z,100
2023-10-12T18:19:33.316Z,100
2023-10-12T18:25:28.186Z,100
2023-10-12T18:31:20.025Z,100
2023-10-12T18:37:16.627Z,100
2023-10-12T18:43:09.660Z,100
2023-10-12T18:49:03.780Z,100
2023-10-12T18:54:58.410Z,100
2023-10-12T19:00:50.294Z,100
2023-10-12T19:06:42.586Z,100
2023-10-12T19:12:34.775Z,100
2023-10-12T19:18:26.569Z,100
2023-10-12T19:24:18.831Z,100
2023-10-12T19:30:10.555Z,100
2023-10-12T19:36:04.825Z,100
2023-10-12T19:41:57.797Z,100
2023-10-12T19:47:49.967Z,100
2023-10-12T19:53:41.833Z,100
2023-10-12T19:59:34.620Z,100
2023-10-12T20:05:28.006Z,100
2023-10-12T20:11:20.466Z,100
2023-10-12T20:17:12.405Z,100
2023-10-12T20:23:02.817Z,100
2023-10-12T20:28:53.548Z,100
2023-10-12T20:34:45.699Z,100
2023-10-12T20:40:40.190Z,100
2023-10-12T20:46:35.697Z,100
2023-10-12T20:52:30.253Z,100
2023-10-12T20:58:24.153Z,100
2023-10-12T21:04:17.449Z,100
2023-10-12T21:10:12.585Z,100
2023-10-12T21:16:06.757Z,100
2023-10-12T21:21:59.446Z,100
2023-10-12T21:27:54.427Z,100
2023-10-12T21:33:48.749Z,100
2023-10-12T21:39:40.710Z,100
2023-10-12T21:45:33.104Z,100
2023-10-12T21:51:27.782Z,100
2023-10-12T21:57:21.803Z,100
2023-10-12T22:03:13.991Z,100
2023-10-12T22:09:06.354Z,100
2023-10-12T22:14:59.164Z,100
2023-10-12T22:20:52.583Z,100
2023-10-12T22:26:44.622Z,100
2023-10-12T22:32:35.326Z,100
2023-10-12T22:38:28.659Z,100
2023-10-12T22:44:19.169Z,100
2023-10-12T22:50:10.919Z,100
2023-10-12T22:56:01.629Z,100
2023-10-12T23:01:56.960Z,100
2023-10-12T23:07:51.168Z,100
2023-10-12T23:13:42.430Z,100
2023-10-12T23:19:35.139Z,100
2023-10-12T23:25:29.149Z,100
2023-10-12T23:31:21.785Z,100
2023-10-12T23:37:15.861Z,100
2023-10-12T23:43:07.265Z,100
2023-10-12T23:48:59.215Z,100
2023-10-12T23:54:52.684Z,100
